Time;durP1;ratioP1;P1;durP2;ratioP2;P2;SDS_P1;SDS_P2;PMS_P1;PMS_P2;Temp;Humidity;BMP_temperature;BMP_pressure;BME280_temperature;BME280_humidity;BME280_pressure;Samples;Min_cycle;Max_cycle;Signal;HPM_P1;HPM_P2
2024/04/15 00:00:48;;;;;;;1.58;0.82;;;;;;;;;;5563186;25;19993;-58
2024/04/15 00:03:14;;;;;;;3.80;0.95;;;;;;;;;;5552386;25;20008;-59
2024/04/15 00:05:40;;;;;;;2.95;0.93;;;;;;;;;;5532287;25;20001;-57
2024/04/15 00:08:07;;;;;;;4.90;1.15;;;;;;;;;;5536622;25;20364;-58
2024/04/15 00:10:37;;;;;;;5.50;1.92;;;;;;;;;;5539848;25;20004;-58
2024/04/15 00:13:03;;;;;;;4.18;1.00;;;;;;;;;;5543157;25;20448;-59
2024/04/15 00:15:29;;;;;;;3.45;0.95;;;;;;;;;;5539647;25;19996;-58
2024/04/15 00:17:55;;;;;;;4.97;0.90;;;;;;;;;;5543778;25;19997;-59
2024/04/15 00:20:21;;;;;;;2.67;1.00;;;;;;;;;;5540199;25;20457;-58
2024/04/15 00:22:47;;;;;;;4.70;0.90;;;;;;;;;;5543956;25;19996;-58
2024/04/15 00:25:12;;;;;;;3.55;0.80;;;;;;;;;;5546113;25;20015;-59
2024/04/15 00:27:38;;;;;;;4.10;0.75;;;;;;;;;;5543191;25;20471;-59
2024/04/15 00:30:05;;;;;;;5.55;0.90;;;;;;;;;;5545558;25;19997;-58
2024/04/15 00:32:31;;;;;;;6.53;1.05;;;;;;;;;;5542547;25;19993;-58
2024/04/15 00:34:58;;;;;;;6.25;1.08;;;;;;;;;;5543287;25;20020;-57
2024/04/15 00:37:24;;;;;;;8.13;1.17;;;;;;;;;;5541485;25;20012;-59
2024/04/15 00:39:50;;;;;;;2.33;1.00;;;;;;;;;;5535595;25;20012;-57
2024/04/15 00:42:15;;;;;;;3.47;1.08;;;;;;;;;;5531531;25;19998;-57
2024/04/15 00:44:42;;;;;;;3.50;0.85;;;;;;;;;;5534815;25;20012;-58
2024/04/15 00:47:08;;;;;;;6.57;1.05;;;;;;;;;;5540201;25;20015;-57
2024/04/15 00:49:37;;;;;;;4.20;1.35;;;;;;;;;;5539097;25;20072;-57
2024/04/15 00:52:03;;;;;;;5.68;0.90;;;;;;;;;;5542833;25;20028;-58
2024/04/15 00:54:31;;;;;;;3.67;1.15;;;;;;;;;;5540853;25;20001;-58
2024/04/15 00:56:57;;;;;;;1.15;0.60;;;;;;;;;;5538881;25;20421;-58
2024/04/15 00:59:23;;;;;;;3.80;0.90;;;;;;;;;;5540693;25;19997;-60
2024/04/15 01:01:49;;;;;;;3.50;1.00;;;;;;;;;;5543615;25;19998;-58
2024/04/15 01:04:15;;;;;;;2.42;0.85;;;;;;;;;;5542479;25;20020;-58
2024/04/15 01:06:41;;;;;;;3.47;0.88;;;;;;;;;;5538511;25;20076;-58
2024/04/15 01:09:07;;;;;;;3.80;0.70;;;;;;;;;;5541481;25;20012;-58
2024/04/15 01:11:33;;;;;;;2.72;1.00;;;;;;;;;;5524637;25;19997;-59
2024/04/15 01:14:01;;;;;;;6.28;0.90;;;;;;;;;;5528541;25;20011;-58
2024/04/15 01:16:39;;;;;;;5.72;1.00;;;;;;;;;;5553183;25;20081;-57
2024/04/15 01:19:05;;;;;;;4.72;1.08;;;;;;;;;;5558716;25;20094;-58
2024/04/15 01:21:31;;;;;;;4.32;0.95;;;;;;;;;;5542642;25;20005;-59
2024/04/15 01:24:01;;;;;;;5.07;1.23;;;;;;;;;;5524259;25;19997;-57
2024/04/15 01:26:29;;;;;;;5.45;0.90;;;;;;;;;;5524643;26;20457;-57
2024/04/15 01:28:55;;;;;;;4.28;1.45;;;;;;;;;;5527776;25;19994;-58
2024/04/15 01:31:21;;;;;;;3.33;1.20;;;;;;;;;;5528099;25;20034;-59
2024/04/15 01:33:47;;;;;;;3.83;0.80;;;;;;;;;;5527433;25;20001;-59
2024/04/15 01:36:13;;;;;;;5.00;1.10;;;;;;;;;;5541867;25;20007;-58
2024/04/15 01:38:39;;;;;;;4.32;1.05;;;;;;;;;;5543211;25;20020;-59
2024/04/15 01:41:04;;;;;;;3.88;0.90;;;;;;;;;;5546860;25;19989;-58
2024/04/15 01:43:30;;;;;;;5.85;1.33;;;;;;;;;;5541660;25;20008;-58
2024/04/15 01:45:56;;;;;;;1.88;0.82;;;;;;;;;;5547392;25;20068;-59
2024/04/15 01:48:22;;;;;;;6.55;1.20;;;;;;;;;;5542748;25;20019;-58
2024/04/15 01:50:48;;;;;;;2.50;1.05;;;;;;;;;;5544597;25;20045;-57
2024/04/15 01:53:15;;;;;;;6.55;0.95;;;;;;;;;;5543352;25;19997;-59
2024/04/15 01:55:42;;;;;;;6.75;1.02;;;;;;;;;;5545719;25;20006;-58
2024/04/15 01:58:08;;;;;;;3.22;1.08;;;;;;;;;;5540583;25;20344;-58
2024/04/15 02:00:34;;;;;;;3.03;1.05;;;;;;;;;;5542554;25;20005;-59
2024/04/15 02:03:00;;;;;;;4.47;1.23;;;;;;;;;;5543189;25;20008;-59
2024/04/15 02:05:26;;;;;;;4.65;0.90;;;;;;;;;;5542246;25;19997;-58
2024/04/15 02:07:55;;;;;;;2.97;1.13;;;;;;;;;;5540129;25;20065;-58
2024/04/15 02:10:21;;;;;;;4.00;1.52;;;;;;;;;;5540014;25;19996;-59
2024/04/15 02:12:47;;;;;;;7.55;1.00;;;;;;;;;;5546042;25;19997;-59
2024/04/15 02:15:15;;;;;;;8.43;1.25;;;;;;;;;;5540427;25;20020;-59
2024/04/15 02:17:41;;;;;;;3.30;1.05;;;;;;;;;;5546332;25;20076;-58
2024/04/15 02:20:07;;;;;;;4.53;0.98;;;;;;;;;;5546580;25;19997;-60
2024/04/15 02:22:33;;;;;;;5.28;1.27;;;;;;;;;;5542427;25;19997;-60
2024/04/15 02:24:59;;;;;;;2.38;1.20;;;;;;;;;;5545177;25;20091;-60
2024/04/15 02:27:25;;;;;;;5.20;1.25;;;;;;;;;;5543616;25;20008;-59
2024/04/15 02:29:51;;;;;;;3.33;0.70;;;;;;;;;;5541127;25;19993;-59
2024/04/15 02:32:18;;;;;;;4.03;1.08;;;;;;;;;;5543798;25;20012;-60
2024/04/15 02:34:44;;;;;;;2.83;1.17;;;;;;;;;;5541645;25;20004;-57
2024/04/15 02:37:10;;;;;;;8.68;0.95;;;;;;;;;;5527317;25;19997;-56
2024/04/15 02:39:37;;;;;;;6.85;1.40;;;;;;;;;;5548783;25;20023;-59
2024/04/15 02:42:03;;;;;;;2.17;0.80;;;;;;;;;;5539376;25;21140;-60
2024/04/15 02:44:29;;;;;;;5.55;1.02;;;;;;;;;;5538494;25;20009;-59
2024/04/15 02:46:55;;;;;;;5.30;0.73;;;;;;;;;;5538435;25;22131;-58
2024/04/15 02:49:21;;;;;;;5.00;1.17;;;;;;;;;;5539257;25;20398;-60
2024/04/15 02:51:47;;;;;;;3.60;1.20;;;;;;;;;;5541378;25;20014;-59
2024/04/15 02:54:13;;;;;;;7.18;1.30;;;;;;;;;;5542207;25;19997;-60
2024/04/15 02:56:41;;;;;;;3.55;0.80;;;;;;;;;;5541193;25;20011;-59
2024/04/15 02:59:07;;;;;;;2.88;0.90;;;;;;;;;;5539236;25;20073;-59
2024/04/15 03:01:33;;;;;;;6.57;1.10;;;;;;;;;;5545447;25;20032;-59
2024/04/15 03:03:59;;;;;;;3.40;0.90;;;;;;;;;;5544756;25;20001;-59
2024/04/15 03:06:25;;;;;;;4.10;1.02;;;;;;;;;;5541744;25;20011;-57
2024/04/15 03:08:51;;;;;;;4.03;0.98;;;;;;;;;;5544626;25;20349;-59
2024/04/15 03:11:17;;;;;;;6.18;1.08;;;;;;;;;;5540119;25;20080;-60
2024/04/15 03:13:43;;;;;;;3.25;1.10;;;;;;;;;;5543143;25;19997;-60
2024/04/15 03:16:09;;;;;;;5.25;1.67;;;;;;;;;;5526765;25;20005;-59
2024/04/15 03:18:34;;;;;;;4.68;1.08;;;;;;;;;;5526912;25;20341;-58
2024/04/15 03:21:10;;;;;;;7.53;1.40;;;;;;;;;;5528070;25;20453;-58
2024/04/15 03:23:36;;;;;;;12.20;1.58;;;;;;;;;;5526408;25;20353;-58
2024/04/15 03:26:02;;;;;;;3.58;0.95;;;;;;;;;;5527662;25;20006;-57
2024/04/15 03:28:28;;;;;;;2.25;0.88;;;;;;;;;;5530884;25;19997;-58
2024/04/15 03:30:54;;;;;;;5.05;1.38;;;;;;;;;;5526450;25;20009;-58
2024/04/15 03:33:20;;;;;;;6.35;1.30;;;;;;;;;;5525588;25;20033;-58
2024/04/15 03:35:46;;;;;;;11.13;1.80;;;;;;;;;;5526593;25;20004;-58
2024/04/15 03:38:12;;;;;;;5.00;1.10;;;;;;;;;;5555699;25;20007;-58
2024/04/15 03:40:38;;;;;;;8.98;1.13;;;;;;;;;;5563637;25;20018;-58
2024/04/15 03:43:04;;;;;;;7.90;1.20;;;;;;;;;;5558588;25;20033;-58
2024/04/15 03:45:30;;;;;;;8.05;1.48;;;;;;;;;;5538330;25;20017;-58
2024/04/15 03:47:56;;;;;;;6.53;1.38;;;;;;;;;;5544534;25;20001;-58
2024/04/15 03:50:25;;;;;;;5.68;0.95;;;;;;;;;;5544509;25;20016;-58
2024/04/15 03:52:51;;;;;;;6.35;1.30;;;;;;;;;;5545274;25;20577;-58
2024/04/15 03:55:17;;;;;;;5.82;1.13;;;;;;;;;;5544671;25;20017;-57
2024/04/15 03:57:43;;;;;;;9.27;1.50;;;;;;;;;;5540477;25;19997;-58
2024/04/15 04:00:09;;;;;;;5.07;0.93;;;;;;;;;;5543854;25;19997;-59
2024/04/15 04:02:35;;;;;;;4.82;1.27;;;;;;;;;;5530261;25;20091;-59
2024/04/15 04:05:01;;;;;;;9.25;1.73;;;;;;;;;;5540382;25;20445;-58
2024/04/15 04:07:27;;;;;;;9.20;1.13;;;;;;;;;;5540621;25;19997;-59
2024/04/15 04:09:53;;;;;;;3.92;1.00;;;;;;;;;;5541807;25;20001;-58
2024/04/15 04:12:19;;;;;;;2.05;0.85;;;;;;;;;;5536364;25;20005;-58
2024/04/15 04:14:45;;;;;;;2.83;0.90;;;;;;;;;;5537982;25;20012;-58
2024/04/15 04:17:11;;;;;;;4.28;1.20;;;;;;;;;;5538383;25;20444;-57
2024/04/15 04:19:37;;;;;;;3.85;1.23;;;;;;;;;;5538069;25;20357;-57
2024/04/15 04:22:03;;;;;;;8.45;1.30;;;;;;;;;;5540634;25;19997;-59
2024/04/15 04:24:29;;;;;;;9.10;1.35;;;;;;;;;;5538613;25;20021;-59
2024/04/15 04:26:55;;;;;;;4.40;1.33;;;;;;;;;;5535038;25;19993;-58
2024/04/15 04:29:21;;;;;;;4.20;1.17;;;;;;;;;;5533187;25;20345;-59
2024/04/15 04:31:47;;;;;;;4.68;1.27;;;;;;;;;;5531710;25;19993;-60
2024/04/15 04:34:13;;;;;;;5.38;1.02;;;;;;;;;;5542884;25;19997;-59
2024/04/15 04:36:39;;;;;;;6.78;1.55;;;;;;;;;;5538494;25;20514;-60
2024/04/15 04:39:05;;;;;;;2.42;1.20;;;;;;;;;;5535441;25;19997;-60
2024/04/15 04:41:31;;;;;;;4.90;1.27;;;;;;;;;;5539805;25;20361;-59
2024/04/15 04:43:57;;;;;;;9.23;1.35;;;;;;;;;;5536897;25;20447;-60
2024/04/15 04:46:23;;;;;;;6.78;1.15;;;;;;;;;;5536008;25;19992;-59
2024/04/15 04:48:50;;;;;;;7.15;1.75;;;;;;;;;;5537325;25;21074;-61
2024/04/15 04:51:16;;;;;;;8.73;1.20;;;;;;;;;;5534843;25;20005;-60
2024/04/15 04:53:42;;;;;;;8.65;1.58;;;;;;;;;;5537412;25;19997;-60
2024/04/15 04:56:12;;;;;;;11.85;1.58;;;;;;;;;;5536482;25;20003;-58
2024/04/15 04:58:38;;;;;;;2.75;1.20;;;;;;;;;;5545994;25;19993;-59
2024/04/15 05:01:11;;;;;;;2.28;0.73;;;;;;;;;;5555411;25;20063;-58
2024/04/15 05:03:37;;;;;;;3.42;0.85;;;;;;;;;;5544617;25;19994;-59
2024/04/15 05:06:07;;;;;;;8.63;1.38;;;;;;;;;;5544229;25;20389;-60
2024/04/15 05:08:33;;;;;;;2.45;0.65;;;;;;;;;;5531421;25;20017;-59
2024/04/15 05:10:59;;;;;;;4.45;1.20;;;;;;;;;;5561010;25;20437;-59
2024/04/15 05:13:25;;;;;;;3.67;1.13;;;;;;;;;;5536233;25;20069;-59
2024/04/15 05:15:51;;;;;;;7.15;1.20;;;;;;;;;;5526280;25;20398;-60
2024/04/15 05:18:17;;;;;;;4.57;1.25;;;;;;;;;;5527707;25;20001;-59
2024/04/15 05:20:43;;;;;;;9.13;1.27;;;;;;;;;;5555427;25;19997;-61
2024/04/15 05:23:09;;;;;;;8.15;1.50;;;;;;;;;;5539060;25;20374;-59
2024/04/15 05:25:37;;;;;;;4.13;1.73;;;;;;;;;;5529733;25;20405;-60
2024/04/15 05:28:03;;;;;;;2.70;0.93;;;;;;;;;;5549707;25;19992;-60
2024/04/15 05:30:29;;;;;;;6.90;1.50;;;;;;;;;;5542509;25;19997;-61
2024/04/15 05:32:55;;;;;;;3.83;1.08;;;;;;;;;;5547527;25;20012;-60
2024/04/15 05:35:21;;;;;;;6.07;1.20;;;;;;;;;;5545203;25;19997;-60
2024/04/15 05:37:47;;;;;;;6.85;1.95;;;;;;;;;;5529579;25;20013;-60
2024/04/15 05:40:13;;;;;;;6.38;1.63;;;;;;;;;;5553798;25;19997;-58
2024/04/15 05:42:39;;;;;;;4.03;0.95;;;;;;;;;;5543499;25;19993;-57
2024/04/15 05:45:05;;;;;;;9.90;1.42;;;;;;;;;;5554400;25;20397;-58
2024/04/15 05:47:31;;;;;;;4.20;1.05;;;;;;;;;;5541975;25;20008;-59
2024/04/15 05:49:57;;;;;;;4.63;1.17;;;;;;;;;;5539655;25;20296;-58
2024/04/15 05:52:23;;;;;;;12.00;1.88;;;;;;;;;;5538585;25;20005;-58
2024/04/15 05:54:49;;;;;;;10.63;1.30;;;;;;;;;;5551730;25;20015;-58
2024/04/15 05:57:15;;;;;;;4.15;1.00;;;;;;;;;;5545762;25;19997;-58
2024/04/15 05:59:41;;;;;;;12.00;1.50;;;;;;;;;;5532730;25;20005;-59
2024/04/15 06:02:07;;;;;;;5.47;1.23;;;;;;;;;;5535658;25;20434;-58
2024/04/15 06:04:35;;;;;;;9.10;1.38;;;;;;;;;;5554624;25;20302;-58
2024/04/15 06:07:02;;;;;;;7.85;1.50;;;;;;;;;;5550567;25;20072;-58
2024/04/15 06:09:28;;;;;;;6.85;1.45;;;;;;;;;;5531419;25;19997;-57
2024/04/15 06:11:54;;;;;;;2.63;0.98;;;;;;;;;;5541844;25;20087;-58
2024/04/15 06:14:22;;;;;;;5.65;1.33;;;;;;;;;;5557314;25;19997;-58
2024/04/15 06:16:48;;;;;;;6.20;1.20;;;;;;;;;;5543526;25;20000;-58
2024/04/15 06:19:14;;;;;;;6.38;1.67;;;;;;;;;;5563221;25;20305;-58
2024/04/15 06:21:40;;;;;;;3.83;0.90;;;;;;;;;;5560444;25;20004;-58
2024/04/15 06:24:06;;;;;;;10.45;1.48;;;;;;;;;;5559886;25;20347;-58
2024/04/15 06:26:32;;;;;;;5.20;1.33;;;;;;;;;;5559763;25;20000;-58
2024/04/15 06:28:58;;;;;;;8.65;1.60;;;;;;;;;;5548807;25;20358;-59
2024/04/15 06:31:24;;;;;;;4.72;1.35;;;;;;;;;;5539390;25;20398;-58
2024/04/15 06:33:50;;;;;;;7.25;1.23;;;;;;;;;;5539661;25;19996;-59
2024/04/15 06:36:16;;;;;;;3.88;1.60;;;;;;;;;;5552409;25;20101;-58
2024/04/15 06:38:42;;;;;;;7.55;1.90;;;;;;;;;;5552996;25;20037;-58
2024/04/15 06:41:08;;;;;;;10.95;2.20;;;;;;;;;;5554609;25;20041;-58
2024/04/15 06:43:34;;;;;;;7.18;1.83;;;;;;;;;;5545885;25;19993;-58
2024/04/15 06:46:00;;;;;;;4.78;1.40;;;;;;;;;;5544054;25;20431;-57
2024/04/15 06:48:26;;;;;;;4.97;1.60;;;;;;;;;;5544676;25;19993;-62
2024/04/15 06:50:52;;;;;;;8.30;1.42;;;;;;;;;;5531140;25;20009;-61
2024/04/15 06:53:18;;;;;;;4.78;1.52;;;;;;;;;;5563172;25;20080;-62
2024/04/15 06:55:44;;;;;;;6.53;1.80;;;;;;;;;;5548801;25;19992;-62
2024/04/15 06:58:10;;;;;;;5.20;2.40;;;;;;;;;;5549771;25;20001;-62
2024/04/15 07:00:36;;;;;;;5.43;1.92;;;;;;;;;;5552408;25;19993;-62
2024/04/15 07:03:02;;;;;;;9.57;2.08;;;;;;;;;;5555753;25;20077;-62
2024/04/15 07:05:28;;;;;;;6.18;2.08;;;;;;;;;;5557388;25;20009;-61
2024/04/15 07:07:54;;;;;;;9.52;2.45;;;;;;;;;;5542284;25;20320;-61
2024/04/15 07:10:19;;;;;;;5.53;1.90;;;;;;;;;;5555498;25;20360;-58
2024/04/15 07:12:45;;;;;;;5.93;2.35;;;;;;;;;;5536445;25;20033;-62
2024/04/15 07:15:11;;;;;;;7.38;2.22;;;;;;;;;;5545051;25;20263;-58
2024/04/15 07:17:38;;;;;;;7.07;2.22;;;;;;;;;;5530106;25;20038;-59
2024/04/15 07:20:05;;;;;;;9.77;2.80;;;;;;;;;;5548912;25;20033;-61
2024/04/15 07:22:31;;;;;;;14.02;3.90;;;;;;;;;;5534129;25;20005;-62
2024/04/15 07:25:02;;;;;;;8.07;3.75;;;;;;;;;;5532917;25;20011;-62
2024/04/15 07:27:35;;;;;;;9.18;4.00;;;;;;;;;;5546072;25;20001;-62
2024/04/15 07:30:01;;;;;;;9.23;3.55;;;;;;;;;;5541752;25;20086;-62
2024/04/15 07:32:28;;;;;;;11.77;4.22;;;;;;;;;;5536423;25;20416;-62
2024/04/15 07:34:54;;;;;;;5.90;3.63;;;;;;;;;;5547734;25;20425;-62
2024/04/15 07:37:20;;;;;;;11.70;4.10;;;;;;;;;;5549393;25;20009;-59
2024/04/15 07:39:49;;;;;;;7.35;3.47;;;;;;;;;;5550849;25;20349;-62
2024/04/15 07:42:15;;;;;;;7.90;3.50;;;;;;;;;;5536375;25;20377;-62
2024/04/15 07:44:41;;;;;;;6.40;2.90;;;;;;;;;;5547114;25;20002;-62
2024/04/15 07:47:07;;;;;;;7.57;3.28;;;;;;;;;;5528834;25;20305;-62
2024/04/15 07:49:33;;;;;;;9.20;2.70;;;;;;;;;;5542765;25;20032;-62
2024/04/15 07:51:59;;;;;;;6.95;3.25;;;;;;;;;;5540545;25;19993;-60
2024/04/15 07:54:25;;;;;;;7.70;3.05;;;;;;;;;;5547505;25;20009;-62
2024/04/15 07:56:51;;;;;;;5.05;2.33;;;;;;;;;;5537301;25;20008;-61
2024/04/15 07:59:17;;;;;;;7.82;3.00;;;;;;;;;;5544333;25;20219;-59
2024/04/15 08:01:43;;;;;;;6.30;2.50;;;;;;;;;;5522576;25;19997;-59
2024/04/15 08:04:09;;;;;;;8.63;2.45;;;;;;;;;;5538562;25;19996;-59
2024/04/15 08:06:35;;;;;;;7.93;2.47;;;;;;;;;;5551830;25;19992;-58
2024/04/15 08:09:01;;;;;;;7.30;2.03;;;;;;;;;;5561344;25;20027;-59
2024/04/15 08:11:27;;;;;;;6.65;2.00;;;;;;;;;;5546777;25;20016;-58
2024/04/15 08:13:53;;;;;;;6.50;1.67;;;;;;;;;;5556763;25;20001;-59
2024/04/15 08:16:19;;;;;;;4.82;1.80;;;;;;;;;;5539196;25;20012;-60
2024/04/15 08:18:48;;;;;;;4.50;1.73;;;;;;;;;;5545848;25;20434;-59
2024/04/15 08:21:14;;;;;;;7.40;1.30;;;;;;;;;;5558092;25;19997;-59
2024/04/15 08:23:40;;;;;;;8.57;2.10;;;;;;;;;;5553642;25;20456;-61
2024/04/15 08:26:06;;;;;;;3.95;1.50;;;;;;;;;;5552447;25;20011;-58
2024/04/15 08:28:33;;;;;;;6.32;1.50;;;;;;;;;;5537904;25;20008;-58
2024/04/15 08:30:59;;;;;;;5.22;1.58;;;;;;;;;;5548383;25;20000;-59
2024/04/15 08:33:25;;;;;;;5.70;1.20;;;;;;;;;;5530258;25;20001;-59
2024/04/15 08:35:51;;;;;;;5.93;1.75;;;;;;;;;;5556614;25;20008;-60
2024/04/15 08:38:17;;;;;;;4.45;0.95;;;;;;;;;;5553163;25;20001;-59
2024/04/15 08:40:51;;;;;;;5.13;1.40;;;;;;;;;;5561514;25;20317;-59
2024/04/15 08:43:19;;;;;;;4.70;1.33;;;;;;;;;;5555959;25;20013;-58
2024/04/15 08:45:46;;;;;;;4.50;1.77;;;;;;;;;;5555407;25;20480;-59
2024/04/15 08:48:12;;;;;;;3.65;1.27;;;;;;;;;;5540501;25;20004;-59
2024/04/15 08:50:38;;;;;;;5.45;1.20;;;;;;;;;;5539011;25;20011;-59
2024/04/15 08:53:04;;;;;;;6.68;1.70;;;;;;;;;;5536387;25;20004;-59
2024/04/15 08:55:31;;;;;;;4.10;1.33;;;;;;;;;;5541951;25;20013;-58
2024/04/15 08:57:57;;;;;;;5.78;1.30;;;;;;;;;;5540806;25;20028;-58
2024/04/15 09:00:24;;;;;;;8.60;1.40;;;;;;;;;;5544245;25;20012;-59
2024/04/15 09:02:51;;;;;;;3.58;1.27;;;;;;;;;;5537691;25;20401;-58
2024/04/15 09:05:17;;;;;;;8.93;1.25;;;;;;;;;;5535181;25;20015;-59
2024/04/15 09:07:44;;;;;;;5.72;1.20;;;;;;;;;;5536185;25;20012;-59
2024/04/15 09:10:11;;;;;;;2.55;1.13;;;;;;;;;;5538814;25;19997;-58
2024/04/15 09:12:38;;;;;;;3.17;1.35;;;;;;;;;;5542295;25;20052;-58
2024/04/15 09:15:04;;;;;;;6.35;1.40;;;;;;;;;;5542679;25;19997;-58
2024/04/15 09:17:31;;;;;;;4.85;1.20;;;;;;;;;;5539827;25;20429;-58
2024/04/15 09:19:57;;;;;;;4.35;1.20;;;;;;;;;;5527928;25;20010;-57
2024/04/15 09:22:29;;;;;;;4.10;1.38;;;;;;;;;;5538002;25;20004;-58
2024/04/15 09:24:56;;;;;;;8.00;1.15;;;;;;;;;;5542081;25;20001;-59
2024/04/15 09:27:24;;;;;;;4.07;1.40;;;;;;;;;;5539943;25;20179;-58
2024/04/15 09:29:50;;;;;;;4.35;1.48;;;;;;;;;;5529788;25;20008;-58
2024/04/15 09:32:16;;;;;;;4.05;1.17;;;;;;;;;;5525336;25;19994;-58
2024/04/15 09:34:42;;;;;;;4.20;1.30;;;;;;;;;;5542510;25;20072;-58
2024/04/15 09:37:09;;;;;;;6.60;1.00;;;;;;;;;;5538117;25;20083;-58
2024/04/15 09:39:36;;;;;;;6.70;1.20;;;;;;;;;;5536453;25;20331;-57
2024/04/15 09:42:02;;;;;;;4.90;1.15;;;;;;;;;;5532467;25;20096;-57
2024/04/15 09:44:30;;;;;;;5.90;1.38;;;;;;;;;;5531974;25;19997;-59
2024/04/15 09:46:56;;;;;;;3.17;1.30;;;;;;;;;;5555325;25;20350;-58
2024/04/15 09:49:22;;;;;;;2.97;0.90;;;;;;;;;;5555197;25;19992;-59
2024/04/15 09:51:51;;;;;;;4.40;1.38;;;;;;;;;;5534201;25;20433;-58
2024/04/15 09:54:22;;;;;;;3.65;0.98;;;;;;;;;;5547789;25;20008;-58
2024/04/15 09:56:48;;;;;;;4.25;1.20;;;;;;;;;;5547634;25;20016;-58
2024/04/15 09:59:15;;;;;;;3.67;1.15;;;;;;;;;;5549428;25;19996;-60
2024/04/15 10:01:43;;;;;;;4.35;1.08;;;;;;;;;;5549974;25;20040;-59
2024/04/15 10:04:23;;;;;;;4.97;1.35;;;;;;;;;;5531213;25;19997;-58
2024/04/15 10:06:51;;;;;;;2.45;1.00;;;;;;;;;;5546781;25;20001;-58
2024/04/15 10:09:18;;;;;;;3.90;1.10;;;;;;;;;;5536339;25;20058;-59
2024/04/15 10:11:48;;;;;;;4.85;1.05;;;;;;;;;;5539246;25;19996;-58
2024/04/15 10:14:14;;;;;;;3.72;0.93;;;;;;;;;;5538174;25;20011;-58
2024/04/15 10:16:45;;;;;;;3.58;1.20;;;;;;;;;;5556843;25;20013;-58
2024/04/15 10:19:11;;;;;;;4.47;1.20;;;;;;;;;;5538590;25;20005;-57
2024/04/15 10:21:37;;;;;;;3.55;1.15;;;;;;;;;;5531811;25;20026;-58
2024/04/15 10:24:04;;;;;;;2.85;0.88;;;;;;;;;;5552537;25;20012;-57
2024/04/15 10:26:30;;;;;;;2.83;0.98;;;;;;;;;;5527875;25;20016;-58
2024/04/15 10:29:12;;;;;;;2.70;1.00;;;;;;;;;;5558618;25;20011;-58
2024/04/15 10:31:41;;;;;;;1.95;0.80;;;;;;;;;;5560427;25;20071;-58
2024/04/15 10:34:07;;;;;;;2.28;0.90;;;;;;;;;;5559948;25;20009;-58
2024/04/15 10:36:36;;;;;;;3.40;0.80;;;;;;;;;;5563549;25;20334;-58
2024/04/15 10:39:05;;;;;;;2.85;0.75;;;;;;;;;;5533683;25;20025;-57
2024/04/15 10:41:31;;;;;;;4.40;1.30;;;;;;;;;;5545991;25;20009;-58
2024/04/15 10:43:58;;;;;;;5.22;1.20;;;;;;;;;;5545990;25;20480;-57
2024/04/15 10:46:24;;;;;;;2.67;0.60;;;;;;;;;;5536385;25;20432;-59
2024/04/15 10:48:50;;;;;;;2.28;0.70;;;;;;;;;;5537624;25;19997;-59
2024/04/15 10:51:16;;;;;;;3.65;1.20;;;;;;;;;;5553789;25;19993;-57
2024/04/15 10:53:42;;;;;;;4.57;0.80;;;;;;;;;;5558294;25;20037;-58
2024/04/15 10:56:09;;;;;;;2.25;0.70;;;;;;;;;;5533874;25;20014;-59
2024/04/15 10:58:36;;;;;;;4.05;1.15;;;;;;;;;;5559925;25;20000;-58
2024/04/15 11:01:02;;;;;;;3.03;0.90;;;;;;;;;;5563502;25;20064;-57
2024/04/15 11:03:29;;;;;;;3.13;0.88;;;;;;;;;;5549928;25;20002;-58
2024/04/15 11:05:56;;;;;;;11.98;1.20;;;;;;;;;;5540771;25;20003;-57
2024/04/15 11:08:22;;;;;;;2.20;0.90;;;;;;;;;;5539834;25;19994;-58
2024/04/15 11:10:48;;;;;;;3.05;0.88;;;;;;;;;;5530275;25;20076;-58
2024/04/15 11:13:15;;;;;;;1.98;0.98;;;;;;;;;;5539934;25;20012;-58
2024/04/15 11:15:41;;;;;;;0.80;0.60;;;;;;;;;;5561633;25;20011;-57
2024/04/15 11:18:14;;;;;;;2.08;1.05;;;;;;;;;;5535028;25;20012;-57
2024/04/15 11:20:40;;;;;;;2.20;1.10;;;;;;;;;;5527304;25;20009;-58
2024/04/15 11:23:07;;;;;;;2.00;0.98;;;;;;;;;;5542881;25;20013;-57
2024/04/15 11:25:33;;;;;;;2.80;1.27;;;;;;;;;;5550793;25;20028;-56
2024/04/15 11:28:00;;;;;;;2.38;0.85;;;;;;;;;;5562917;25;19997;-58
2024/04/15 11:30:26;;;;;;;2.20;1.02;;;;;;;;;;5537028;25;19997;-59
2024/04/15 11:32:52;;;;;;;4.03;1.35;;;;;;;;;;5544990;25;20071;-60
2024/04/15 11:35:19;;;;;;;1.63;0.77;;;;;;;;;;5548571;25;20007;-58
2024/04/15 11:37:51;;;;;;;1.45;0.80;;;;;;;;;;5543426;25;20000;-58
2024/04/15 11:40:17;;;;;;;2.05;0.70;;;;;;;;;;5562354;25;20012;-59
2024/04/15 11:42:44;;;;;;;6.00;1.20;;;;;;;;;;5548494;25;20413;-59
2024/04/15 11:45:14;;;;;;;1.60;0.50;;;;;;;;;;5558365;25;19997;-59
2024/04/15 11:47:40;;;;;;;3.75;1.00;;;;;;;;;;5559082;25;20002;-59
2024/04/15 11:50:06;;;;;;;3.97;0.95;;;;;;;;;;5544428;25;20012;-59
2024/04/15 11:52:32;;;;;;;2.22;1.13;;;;;;;;;;5560788;25;20337;-59
2024/04/15 11:54:58;;;;;;;8.90;1.45;;;;;;;;;;5553355;25;20046;-59
2024/04/15 11:57:24;;;;;;;2.67;1.00;;;;;;;;;;5544199;25;20007;-59
2024/04/15 11:59:51;;;;;;;1.40;1.05;;;;;;;;;;5541500;25;20001;-58
2024/04/15 12:02:18;;;;;;;3.22;1.20;;;;;;;;;;5545446;25;20142;-59
2024/04/15 12:04:47;;;;;;;4.40;1.67;;;;;;;;;;5546068;25;20005;-59
2024/04/15 12:07:14;;;;;;;1.50;1.05;;;;;;;;;;5558949;25;19997;-59
2024/04/15 12:09:41;;;;;;;2.63;0.90;;;;;;;;;;5559394;25;19997;-59
2024/04/15 12:12:07;;;;;;;2.00;1.20;;;;;;;;;;5546467;25;20002;-59
2024/04/15 12:14:33;;;;;;;6.05;1.48;;;;;;;;;;5547986;25;20001;-59
2024/04/15 12:16:59;;;;;;;2.78;1.45;;;;;;;;;;5536038;25;20021;-59
2024/04/15 12:19:25;;;;;;;4.05;1.60;;;;;;;;;;5536869;25;19997;-59
2024/04/15 12:21:51;;;;;;;2.13;1.42;;;;;;;;;;5537876;25;20317;-59
2024/04/15 12:24:17;;;;;;;5.03;1.63;;;;;;;;;;5556865;25;20040;-59
2024/04/15 12:26:43;;;;;;;6.30;1.58;;;;;;;;;;5555663;25;20007;-57
2024/04/15 12:29:09;;;;;;;4.95;1.83;;;;;;;;;;5545943;25;19996;-59
2024/04/15 12:31:35;;;;;;;2.92;1.52;;;;;;;;;;5524392;25;20326;-58
2024/04/15 12:34:01;;;;;;;5.55;1.60;;;;;;;;;;5551742;25;20365;-59
2024/04/15 12:36:27;;;;;;;5.22;1.73;;;;;;;;;;5539280;25;19997;-59
2024/04/15 12:38:53;;;;;;;5.25;1.80;;;;;;;;;;5547871;25;19997;-59
2024/04/15 12:41:19;;;;;;;5.63;1.90;;;;;;;;;;5546572;25;20068;-59
2024/04/15 12:43:46;;;;;;;4.22;1.80;;;;;;;;;;5555568;25;20025;-58
2024/04/15 12:46:12;;;;;;;7.05;2.38;;;;;;;;;;5551433;25;19993;-59
2024/04/15 12:48:38;;;;;;;3.88;1.85;;;;;;;;;;5548166;25;20085;-59
2024/04/15 12:51:04;;;;;;;2.72;1.30;;;;;;;;;;5537081;25;20036;-59
2024/04/15 12:53:30;;;;;;;4.00;1.40;;;;;;;;;;5557380;25;20092;-59
2024/04/15 12:55:57;;;;;;;7.70;1.70;;;;;;;;;;5533570;25;20004;-59
2024/04/15 12:58:23;;;;;;;4.38;1.23;;;;;;;;;;5557654;25;20004;-59
2024/04/15 13:00:49;;;;;;;3.30;1.60;;;;;;;;;;5542243;25;19993;-60
2024/04/15 13:03:15;;;;;;;2.25;1.42;;;;;;;;;;5537145;25;19997;-58
2024/04/15 13:05:41;;;;;;;2.95;1.80;;;;;;;;;;5545986;25;20329;-59
2024/04/15 13:08:07;;;;;;;4.65;2.55;;;;;;;;;;5560074;25;20008;-59
2024/04/15 13:10:33;;;;;;;10.40;2.78;;;;;;;;;;5538832;25;20004;-59
2024/04/15 13:12:59;;;;;;;5.38;2.40;;;;;;;;;;5536910;25;19997;-59
2024/04/15 13:15:26;;;;;;;4.75;2.70;;;;;;;;;;5534638;25;20449;-58
2024/04/15 13:17:53;;;;;;;2.58;2.15;;;;;;;;;;5555900;25;19992;-58
2024/04/15 13:20:20;;;;;;;2.75;1.95;;;;;;;;;;5527997;25;19993;-59
2024/04/15 13:22:46;;;;;;;6.88;2.25;;;;;;;;;;5544592;25;20068;-59
2024/04/15 13:25:12;;;;;;;5.03;1.65;;;;;;;;;;5555136;25;20025;-59
2024/04/15 13:27:38;;;;;;;3.78;2.10;;;;;;;;;;5556394;25;20025;-59
2024/04/15 13:30:05;;;;;;;3.15;2.13;;;;;;;;;;5540411;25;20001;-59
2024/04/15 13:32:31;;;;;;;3.33;2.20;;;;;;;;;;5553728;25;19993;-59
2024/04/15 13:34:59;;;;;;;3.38;2.17;;;;;;;;;;5555881;25;20011;-59
2024/04/15 13:37:25;;;;;;;4.95;2.00;;;;;;;;;;5555856;25;20033;-59
2024/04/15 13:39:51;;;;;;;3.53;1.98;;;;;;;;;;5530882;25;20317;-59
2024/04/15 13:42:18;;;;;;;3.13;1.95;;;;;;;;;;5537668;25;20016;-59
2024/04/15 13:44:44;;;;;;;6.15;2.22;;;;;;;;;;5551362;25;20358;-59
2024/04/15 13:47:10;;;;;;;4.50;1.90;;;;;;;;;;5549380;25;20567;-59
2024/04/15 13:49:36;;;;;;;3.03;2.20;;;;;;;;;;5539488;25;20001;-60
2024/04/15 13:52:03;;;;;;;5.28;2.55;;;;;;;;;;5562618;25;20001;-60
2024/04/15 13:54:29;;;;;;;3.65;2.13;;;;;;;;;;5529911;25;20530;-60
2024/04/15 13:56:56;;;;;;;4.78;2.15;;;;;;;;;;5544467;25;20032;-60
2024/04/15 13:59:22;;;;;;;3.90;2.53;;;;;;;;;;5530903;25;20065;-61
2024/04/15 14:01:48;;;;;;;6.10;2.70;;;;;;;;;;5554756;25;20421;-59
2024/04/15 14:04:14;;;;;;;4.90;2.45;;;;;;;;;;5535048;25;20022;-59
2024/04/15 14:06:41;;;;;;;6.90;2.22;;;;;;;;;;5539200;25;20001;-59
2024/04/15 14:09:07;;;;;;;6.50;2.75;;;;;;;;;;5549944;25;20429;-60
2024/04/15 14:11:33;;;;;;;3.85;2.40;;;;;;;;;;5540348;25;20080;-60
2024/04/15 14:13:59;;;;;;;5.82;2.55;;;;;;;;;;5542428;25;20064;-59
2024/04/15 14:16:25;;;;;;;4.55;1.77;;;;;;;;;;5543091;25;19993;-60
2024/04/15 14:18:51;;;;;;;4.22;2.03;;;;;;;;;;5539212;25;20001;-60
2024/04/15 14:21:17;;;;;;;4.95;1.80;;;;;;;;;;5563464;25;20352;-59
2024/04/15 14:23:43;;;;;;;10.60;1.63;;;;;;;;;;5560691;25;20008;-61
2024/04/15 14:26:09;;;;;;;4.88;1.90;;;;;;;;;;5543011;25;20003;-60
2024/04/15 14:28:35;;;;;;;2.33;1.73;;;;;;;;;;5540842;25;20008;-60
2024/04/15 14:31:01;;;;;;;4.55;1.60;;;;;;;;;;5561506;25;20001;-60
2024/04/15 14:33:27;;;;;;;5.55;1.60;;;;;;;;;;5524782;25;20009;-60
2024/04/15 14:35:53;;;;;;;3.40;1.65;;;;;;;;;;5550528;25;20028;-60
2024/04/15 14:38:19;;;;;;;3.20;1.80;;;;;;;;;;5545299;25;20072;-60